Flight Track Log - Related Links

Times and Time Zones

All times are in EDT time to prevent confusion due to time zone crossing. See the CTL312 flight status page for this flight to view local times or setup timezone preferences in your user account.

Time Position Orientation Groundspeed Altitude Reporting Facility
EDT Latitude Longitude Course Direction KTS MPH feet Rate Location/Type
Fri 07:08:44 PM 41.5125 -81.6978 328° Northwest 108 124 900  Level Cleveland Center
Fri 07:09:39 PM 41.5394 -81.7206 328° Northwest 135 155 1,700 735 Climbing Cleveland Center
Fri 07:10:22 PM 41.5644 -81.7319 341° North 143 165 2,100 524 Climbing Cleveland Center
Fri 07:11:22 PM 41.6039 -81.7522 339° North 147 169 2,600 496 Climbing Cleveland Center
Fri 07:12:23 PM 41.6433 -81.7697 342° North 147 169 3,100 457 Climbing Cleveland Center
Fri 07:13:07 PM 41.6681 -81.7811 341° North 152 175 3,400 462 Climbing Cleveland Center
Fri 07:14:07 PM 41.6989 -81.8178 318° Northwest 152 175 3,900 500 Climbing Cleveland Center
Fri 07:15:07 PM 41.7297 -81.8547 318° Northwest 152 175 4,400 550 Climbing Cleveland Center
Fri 07:16:07 PM 41.7608 -81.8886 321° Northwest 152 175 5,000 550 Climbing Cleveland Center
Fri 07:17:07 PM 41.7936 -81.9283 318° Northwest 147 169 5,500 500 Climbing Cleveland Center
Fri 07:18:07 PM 41.8225 -81.9625 319° Northwest 142 163 6,000 200 Climbing Cleveland Center
Fri 07:19:07 PM 41.8553 -82.0022 318° Northwest 148 170 5,900 -50 Descending Cleveland Center
Fri 07:20:07 PM 41.8861 -82.0419 316° Northwest 154 177 5,900 50 Level Cleveland Center
Fri 07:21:07 PM 41.9189 -82.0789 320° Northwest 154 177 6,000  Climbing Cleveland Center
Fri 07:22:07 PM 41.9497 -82.1158 318° Northwest 154 177 5,900 -50 Descending Cleveland Center
Fri 07:23:07 PM 41.9825 -82.1531 320° Northwest 154 177 5,900  Level Cleveland Center
Fri 07:24:07 PM 42.0175 -82.1931 320° Northwest 159 183 5,900  Level Cleveland Center
Fri 07:25:07 PM 42.0442 -82.2272 316° Northwest 159 183 5,900  Level Cleveland Center
Fri 07:26:07 PM 42.0811 -82.2672 321° Northwest 159 183 5,900  Level Cleveland Center
Fri 07:27:04 PM 42.1097 -82.3017 318° Northwest 158 182 5,900  Level Cleveland Center
Fri 07:27:46 PM 42.1322 -82.3331 314° West 149 171 5,900  Level Cleveland Center
Fri 07:28:07 PM 42.1425 -82.3444 321° Northwest 159 183 5,900  Level Cleveland Center
Fri 07:28:35 PM 42.1589 -82.3619 322° Northwest 152 175 5,900  Level Cleveland Center
Fri 07:29:07 PM 42.1731 -82.3819 314° West 154 177 5,900 98 Level Cleveland Center
Fri 07:29:36 PM 42.1894 -82.3992 322° Northwest 152 175 6,000  Climbing Cleveland Center
Fri 07:30:07 PM 42.2058 -82.4219 314° West 154 177 5,900 -98 Descending Cleveland Center
Fri 07:30:37 PM 42.2264 -82.4394 328° Northwest 154 177 5,900  Level Cleveland Center
Fri 07:31:07 PM 42.2364 -82.4594 304° West 149 171 5,900  Level Cleveland Center
Fri 07:31:38 PM 42.2550 -82.4794 322° Northwest 153 176 5,900  Level Cleveland Center
Fri 07:32:07 PM 42.2692 -82.4969 318° Northwest 149 171 5,900  Level Cleveland Center
Fri 07:32:39 PM 42.2856 -82.5169 318° Northwest 153 176 5,900  Level Cleveland Center
Fri 07:33:07 PM 42.2997 -82.5314 323° Northwest 154 177 5,900  Level Cleveland Center
Fri 07:33:39 PM 42.3181 -82.5572 314° West 153 176 5,900  Level Cleveland Center
Fri 07:34:07 PM 42.3303 -82.5744 314° West 154 177 5,900  Level Cleveland Center
Fri 07:34:34 PM 42.3447 -82.5947 314° West 153 176 5,900  Level Cleveland Center
Fri 07:35:07 PM 42.3547 -82.6203 298° West 154 177 5,900  Level Cleveland Center
Fri 07:35:35 PM 42.3667 -82.6458 302° West 153 176 5,900  Level Cleveland Center
Fri 07:36:07 PM 42.3789 -82.6661 309° West 149 171 5,900  Level Cleveland Center
Fri 07:36:36 PM 42.3908 -82.6917 302° West 150 173 5,900  Level Cleveland Center
Fri 07:37:37 PM 42.4172 -82.7347 310° West 153 176 5,900  Level Cleveland Center
Fri 07:38:37 PM 42.4475 -82.7753 315° West 149 171 5,900  Level Cleveland Center
Fri 07:39:38 PM 42.4803 -82.8131 320° Northwest 153 176 5,900  Level Cleveland Center
Fri 07:40:39 PM 42.5128 -82.8536 317° Northwest 153 176 5,900  Level Cleveland Center
Fri 07:41:40 PM 42.5433 -82.8911 318° Northwest 153 176 5,900  Level Cleveland Center
Fri 07:42:41 PM 42.5758 -82.9347 315° West 151 174 5,900  Level Cleveland Center
Fri 07:43:42 PM 42.6083 -82.9697 322° Northwest 153 176 5,900  Level Cleveland Center
Fri 07:44:42 PM 42.6389 -83.0106 315° West 154 177 5,900  Level Cleveland Center
Fri 07:45:44 PM 42.6733 -83.0514 319° Northwest 154 177 5,900  Level Cleveland Center
Fri 07:46:44 PM 42.7058 -83.0922 317° Northwest 155 178 5,900  Level Cleveland Center
Fri 07:47:51 PM 42.7406 -83.1331 319° Northwest 156 180 5,900  Level Cleveland Center
Fri 07:49:00 PM 42.7773 -83.1719 322° Northwest  Level FlightAware Approximate
Fri 07:56:00 PM 42.9950 -83.4187 319° Northwest  Level FlightAware Approximate
Fri 07:57:00 PM 43.0255 -83.4549 319° Northwest  Level FlightAware Approximate
Fri 07:58:00 PM 43.0560 -83.4912 319° Northwest  Level FlightAware Approximate
Fri 07:59:00 PM 43.0864 -83.5275 319° Northwest  Level FlightAware Approximate
Fri 08:00:00 PM 43.1169 -83.5639 319° Northwest  Level FlightAware Approximate
Fri 08:01:00 PM 43.1473 -83.6003 319° Northwest  Level FlightAware Approximate
Fri 08:02:00 PM 43.1778 -83.6367 319° Northwest  Level FlightAware Approximate
Fri 08:03:00 PM 43.2082 -83.6732 319° Northwest  Level FlightAware Approximate
Fri 08:04:00 PM 43.2382 -83.7103 318° Northwest  Level FlightAware Approximate
Fri 08:05:00 PM 43.2681 -83.7476 318° Northwest  Level FlightAware Approximate
Fri 08:06:00 PM 43.2975 -83.7856 316° Northwest  Level FlightAware Approximate
Fri 08:07:00 PM 43.3265 -83.8243 316° Northwest  Level FlightAware Approximate
Fri 08:08:00 PM 43.3567 -83.8612 319° Northwest  Level FlightAware Approximate
Fri 08:09:00 PM 43.3871 -83.8977 319° Northwest  Level FlightAware Approximate
Fri 08:10:00 PM 43.4176 -83.9343 319° Northwest  Level FlightAware Approximate
Fri 08:11:00 PM 43.4481 -83.9708 319° Northwest  Level FlightAware Approximate
Fri 08:12:00 PM 43.4785 -84.0074 319° Northwest  Level FlightAware Approximate
Fri 08:13:00 PM 43.5067 -84.0468 305° West  Level FlightAware Approximate
Fri 08:14:00 PM 43.5167 -84.0667 305° West  Level FlightAware Approximate
Fri 08:15:00 PM 43.5329 -84.0796 305° West  Level Estimated
Fri 08:16:00 PM 43.5329 -84.0796 305° West  Level Estimated
Fri 08:17:00 PM 43.5329 -84.0796 305° West  Level Estimated
Fri 08:18:00 PM 43.5329 -84.0796 305° West  Level Estimated
Fri 08:19:00 PM 43.5329 -84.0796 305° West  Level Estimated
Fri 08:20:00 PM 43.5329 -84.0796 305° West  Level Estimated

Login

Don't have an account? Register now (free) for customized features, flight alerts, and more!